Time;durP1;ratioP1;P1;durP2;ratioP2;P2;SDS_P1;SDS_P2;PMS_P1;PMS_P2;Temp;Humidity;BMP_temperature;BMP_pressure;BME280_temperature;BME280_humidity;BME280_pressure;Samples;Min_cycle;Max_cycle;Signal;HPM_P1;HPM_P2
2023/05/24 00:01:24;;;;;;;18.48;3.20;;;11.40;96.00;;;;;;5011568;28;20103;-71
2023/05/24 00:03:57;;;;;;;13.55;2.80;;;11.40;96.10;;;;;;4994281;28;20064;-71
2023/05/24 00:06:25;;;;;;;16.73;3.30;;;11.40;96.00;;;;;;5011411;28;20109;-68
2023/05/24 00:08:52;;;;;;;24.63;3.35;;;11.30;96.00;;;;;;5011707;28;20018;-70
2023/05/24 00:11:18;;;;;;;17.35;3.70;;;11.40;96.10;;;;;;5011483;28;20034;-71
2023/05/24 00:13:44;;;;;;;16.48;3.33;;;11.40;96.00;;;;;;5011058;28;20050;-71
2023/05/24 00:16:10;;;;;;;11.52;2.17;;;11.30;96.10;;;;;;5011240;28;20107;-71
2023/05/24 00:18:39;;;;;;;15.73;3.08;;;11.30;96.10;;;;;;4993761;28;20049;-71
2023/05/24 00:21:09;;;;;;;23.08;3.17;;;11.20;96.40;;;;;;5010514;28;20029;-70
2023/05/24 00:23:35;;;;;;;23.58;3.83;;;11.20;96.30;;;;;;5009827;28;20034;-70
2023/05/24 00:26:02;;;;;;;12.50;2.72;;;11.10;96.50;;;;;;5010858;28;20026;-70
2023/05/24 00:28:28;;;;;;;21.67;4.00;;;11.10;96.40;;;;;;5011000;28;20037;-70
2023/05/24 00:30:54;;;;;;;15.55;3.67;;;11.00;96.90;;;;;;5010895;28;20046;-70
2023/05/24 00:33:22;;;;;;;19.58;3.33;;;11.10;96.70;;;;;;5010938;28;20033;-71
2023/05/24 00:35:48;;;;;;;13.50;3.40;;;10.90;96.70;;;;;;4994095;28;20190;-70
2023/05/24 00:38:14;;;;;;;19.95;3.28;;;10.90;97.00;;;;;;5010611;28;20037;-71
2023/05/24 00:40:40;;;;;;;17.83;3.55;;;10.90;97.00;;;;;;5010844;28;20049;-70
2023/05/24 00:43:06;;;;;;;22.75;3.42;;;10.80;97.10;;;;;;5010972;28;20030;-69
2023/05/24 00:45:31;;;;;;;18.55;4.03;;;10.80;97.20;;;;;;5010725;28;20022;-70
2023/05/24 00:47:57;;;;;;;17.80;2.85;;;10.80;97.40;;;;;;5010168;28;20064;-71
2023/05/24 00:50:24;;;;;;;22.05;3.00;;;11.00;97.20;;;;;;5010606;28;20046;-70
2023/05/24 00:52:50;;;;;;;20.20;3.33;;;11.00;97.00;;;;;;5010592;28;20029;-71
2023/05/24 00:55:16;;;;;;;22.05;3.85;;;11.00;97.10;;;;;;5010609;28;20037;-70
2023/05/24 00:57:42;;;;;;;19.13;3.17;;;11.10;97.00;;;;;;5010516;28;20518;-69
2023/05/24 01:00:10;;;;;;;16.65;2.78;;;10.90;97.20;;;;;;5009929;28;20250;-70
2023/05/24 01:02:36;;;;;;;24.35;3.53;;;11.00;97.50;;;;;;5010493;28;20053;-70
2023/05/24 01:05:04;;;;;;;15.60;3.28;;;11.10;97.10;;;;;;5010429;28;20026;-70
2023/05/24 01:07:42;;;;;;;18.40;2.80;;;11.00;97.10;;;;;;5010604;28;20045;-71
2023/05/24 01:10:21;;;;;;;14.90;3.03;;;10.80;97.50;;;;;;5010404;28;20102;-69
2023/05/24 01:13:01;;;;;;;21.55;3.05;;;10.90;97.40;;;;;;5010440;28;20042;-70
2023/05/24 01:15:44;;;;;;;21.42;3.63;;;10.80;97.30;;;;;;5010340;28;20026;-70
2023/05/24 01:18:15;;;;;;;27.10;4.07;;;10.70;97.70;;;;;;5010962;28;20117;-71
2023/05/24 01:20:42;;;;;;;24.98;3.83;;;10.70;97.70;;;;;;5010572;28;20120;-70
2023/05/24 01:23:18;;;;;;;20.50;3.60;;;10.60;97.90;;;;;;5010301;28;20040;-70
2023/05/24 01:26:11;;;;;;;18.23;3.28;;;10.60;97.90;;;;;;5010070;28;20034;-70
2023/05/24 01:28:38;;;;;;;18.58;3.13;;;10.60;98.00;;;;;;5010156;28;20487;-70
2023/05/24 01:31:05;;;;;;;21.13;3.57;;;10.70;97.70;;;;;;5009971;28;20042;-71
2023/05/24 01:33:31;;;;;;;19.92;3.80;;;10.70;97.60;;;;;;5010368;28;20045;-70
2023/05/24 01:35:57;;;;;;;30.70;3.83;;;10.70;98.00;;;;;;5019957;28;20329;-71
2023/05/24 01:38:23;;;;;;;22.75;3.28;;;10.70;98.00;;;;;;5029765;28;20120;-69
2023/05/24 01:40:57;;;;;;;18.42;3.83;;;10.70;98.00;;;;;;5029734;28;20026;-70
2023/05/24 01:43:47;;;;;;;22.40;4.57;;;10.70;98.10;;;;;;5029705;28;20030;-70
2023/05/24 01:46:24;;;;;;;26.13;4.35;;;10.70;98.20;;;;;;5029792;28;20249;-69
2023/05/24 01:48:52;;;;;;;26.42;4.32;;;10.60;98.10;;;;;;5030528;28;20038;-71
2023/05/24 01:51:22;;;;;;;21.70;3.50;;;10.70;98.20;;;;;;5033512;28;20021;-71
2023/05/24 01:53:51;;;;;;;14.70;3.55;;;10.80;98.20;;;;;;5034343;28;20032;-69
2023/05/24 01:56:19;;;;;;;27.27;5.15;;;10.60;98.50;;;;;;5016403;28;20176;-72
2023/05/24 01:58:47;;;;;;;22.83;5.22;;;10.70;98.30;;;;;;5033948;28;20029;-70
2023/05/24 02:01:13;;;;;;;;;;;10.70;98.30;;;;;;5034346;28;20132;-72
2023/05/24 02:03:39;;;;;;;20.00;3.95;;;10.60;98.40;;;;;;5033018;28;19927;-70
2023/05/24 02:06:07;;;;;;;26.70;4.07;;;10.80;98.50;;;;;;5034495;28;20107;-71
2023/05/24 02:08:33;;;;;;;27.57;3.57;;;10.80;98.40;;;;;;5016153;28;20063;-70
2023/05/24 02:10:59;;;;;;;28.30;4.40;;;10.80;98.40;;;;;;5015852;28;20334;-70
2023/05/24 02:13:24;;;;;;;29.48;4.47;;;10.70;98.60;;;;;;5015047;28;20547;-70
2023/05/24 02:15:52;;;;;;;20.65;4.18;;;10.90;98.60;;;;;;5033263;28;20082;-69
2023/05/24 02:18:18;;;;;;;28.55;4.50;;;11.00;98.30;;;;;;5014899;28;20037;-70
2023/05/24 02:20:44;;;;;;;23.67;4.30;;;10.90;98.40;;;;;;5016249;28;20033;-71
2023/05/24 02:23:10;;;;;;;24.38;4.40;;;10.90;98.50;;;;;;5015021;28;20140;-71
2023/05/24 02:25:35;;;;;;;25.95;3.90;;;10.90;98.60;;;;;;5015546;28;20046;-70
2023/05/24 02:28:01;;;;;;;25.77;3.78;;;10.90;98.60;;;;;;5032795;28;20029;-71
2023/05/24 02:30:27;;;;;;;32.17;5.78;;;10.90;98.60;;;;;;5015108;28;20087;-69
2023/05/24 02:32:53;;;;;;;23.65;4.07;;;11.00;98.70;;;;;;5033556;28;20447;-69
2023/05/24 02:35:19;;;;;;;20.50;4.65;;;11.00;98.70;;;;;;5015562;28;20044;-69
2023/05/24 02:37:46;;;;;;;23.25;4.18;;;10.90;98.80;;;;;;5032261;28;20112;-70
2023/05/24 02:40:12;;;;;;;31.50;4.43;;;10.90;99.00;;;;;;5033111;28;20040;-70
2023/05/24 02:42:38;;;;;;;20.50;4.47;;;10.70;99.20;;;;;;5031724;28;20030;-70
2023/05/24 02:45:04;;;;;;;25.75;4.70;;;10.70;99.30;;;;;;5033568;28;20014;-70
2023/05/24 02:47:30;;;;;;;28.80;4.30;;;10.70;99.40;;;;;;5032810;28;20045;-70
2023/05/24 02:49:56;;;;;;;23.55;4.88;;;10.80;99.50;;;;;;5032379;28;20072;-70
2023/05/24 02:52:22;;;;;;;27.85;4.85;;;10.70;99.50;;;;;;5014162;28;20038;-70
2023/05/24 02:54:51;;;;;;;24.58;4.38;;;10.70;99.60;;;;;;5032690;28;20049;-69
2023/05/24 02:57:17;;;;;;;24.77;4.82;;;10.90;99.40;;;;;;5032643;28;20026;-70
2023/05/24 02:59:43;;;;;;;27.30;4.88;;;10.80;99.30;;;;;;5032718;28;20372;-69
2023/05/24 03:02:12;;;;;;;21.75;4.07;;;10.90;99.40;;;;;;5032535;28;20026;-69
2023/05/24 03:04:38;;;;;;;22.95;3.97;;;10.70;99.60;;;;;;5032632;28;20097;-70
2023/05/24 03:07:04;;;;;;;33.97;5.00;;;10.70;99.60;;;;;;5031727;28;20029;-71
2023/05/24 03:09:29;;;;;;;27.40;4.68;;;10.60;99.70;;;;;;5014906;28;20097;-70
2023/05/24 03:11:55;;;;;;;25.23;4.30;;;10.70;99.80;;;;;;5033143;28;20347;-71
2023/05/24 03:14:22;;;;;;;26.20;4.70;;;10.70;99.70;;;;;;5031638;28;20079;-71
2023/05/24 03:16:49;;;;;;;35.20;5.30;;;10.70;99.70;;;;;;5032249;28;20080;-70
2023/05/24 03:19:18;;;;;;;19.48;4.30;;;10.70;99.70;;;;;;5014639;28;20045;-71
2023/05/24 03:21:43;;;;;;;27.00;4.93;;;10.80;99.50;;;;;;5032103;28;20033;-70
2023/05/24 03:24:11;;;;;;;26.05;4.60;;;10.70;99.70;;;;;;5032515;28;20021;-70
2023/05/24 03:26:39;;;;;;;31.10;4.78;;;10.60;99.70;;;;;;5032143;28;20463;-69
2023/05/24 03:29:05;;;;;;;22.87;5.53;;;10.70;99.80;;;;;;5031735;28;20406;-71
2023/05/24 03:31:30;;;;;;;27.17;5.13;;;10.70;99.60;;;;;;5032165;28;20064;-70
2023/05/24 03:33:56;;;;;;;28.40;4.53;;;10.70;99.60;;;;;;5014655;28;20043;-70
2023/05/24 03:36:21;;;;;;;30.75;5.43;;;10.80;99.70;;;;;;5031965;28;20417;-70
2023/05/24 03:38:47;;;;;;;28.85;5.10;;;10.60;99.90;;;;;;5032259;28;20030;-70
2023/05/24 03:41:13;;;;;;;29.60;5.63;;;10.60;99.90;;;;;;5031531;28;20108;-69
2023/05/24 03:43:39;;;;;;;34.33;4.57;;;10.50;99.90;;;;;;5031742;28;20029;-71
2023/05/24 03:46:04;;;;;;;26.10;4.93;;;10.60;99.90;;;;;;5031702;28;20101;-71
2023/05/24 03:48:30;;;;;;;23.23;5.57;;;10.60;99.90;;;;;;5032068;28;20030;-70
2023/05/24 03:50:56;;;;;;;28.02;5.35;;;10.70;99.90;;;;;;5032004;28;20083;-70
2023/05/24 03:53:22;;;;;;;21.25;4.65;;;10.70;99.90;;;;;;5031441;28;20041;-70
2023/05/24 03:55:48;;;;;;;23.75;5.28;;;10.70;99.90;;;;;;5031722;28;20025;-71
2023/05/24 03:58:14;;;;;;;35.00;5.32;;;10.70;99.90;;;;;;5031343;28;20080;-70
2023/05/24 04:00:39;;;;;;;22.15;4.93;;;10.80;99.90;;;;;;5031653;28;20030;-70
2023/05/24 04:03:05;;;;;;;35.25;5.30;;;10.70;99.90;;;;;;5031777;28;20439;-70
2023/05/24 04:05:32;;;;;;;27.45;5.25;;;10.60;99.90;;;;;;5031323;28;20045;-71
2023/05/24 04:07:57;;;;;;;27.90;4.65;;;10.60;99.90;;;;;;5031306;28;20040;-71
2023/05/24 04:10:23;;;;;;;20.33;5.10;;;10.70;99.90;;;;;;5031239;28;20030;-70
2023/05/24 04:12:49;;;;;;;30.25;5.80;;;10.80;99.90;;;;;;5030573;28;20034;-71
2023/05/24 04:15:15;;;;;;;23.63;4.70;;;10.90;99.90;;;;;;5031636;28;20047;-70
2023/05/24 04:17:42;;;;;;;31.92;5.43;;;10.90;99.90;;;;;;5031335;28;20041;-72
2023/05/24 04:20:12;;;;;;;31.63;5.13;;;11.00;99.70;;;;;;5031200;28;20041;-71
2023/05/24 04:22:38;;;;;;;31.38;5.88;;;11.00;99.90;;;;;;5013703;28;20076;-70
2023/05/24 04:25:05;;;;;;;30.85;5.32;;;11.00;99.90;;;;;;5013185;28;20029;-70
2023/05/24 04:27:31;;;;;;;28.27;5.22;;;11.10;99.80;;;;;;5030897;28;20017;-70
2023/05/24 04:29:57;;;;;;;32.88;5.22;;;11.20;99.80;;;;;;5013731;28;20196;-70
2023/05/24 04:32:23;;;;;;;24.90;4.75;;;11.00;99.80;;;;;;5030951;28;20527;-70
2023/05/24 04:34:51;;;;;;;30.15;5.57;;;11.10;99.90;;;;;;5031082;28;20116;-69
2023/05/24 04:37:17;;;;;;;30.73;6.60;;;11.20;99.80;;;;;;5030816;28;20041;-71
2023/05/24 04:39:44;;;;;;;32.30;5.20;;;11.30;99.70;;;;;;5030640;28;20116;-71
2023/05/24 04:42:11;;;;;;;21.23;4.97;;;11.30;99.60;;;;;;5031078;28;20018;-71
2023/05/24 04:44:39;;;;;;;29.83;5.10;;;11.00;99.90;;;;;;5030704;28;20033;-71
2023/05/24 04:47:05;;;;;;;40.15;8.25;;;11.10;99.90;;;;;;5030442;28;20530;-70
2023/05/24 04:49:30;;;;;;;26.55;4.63;;;11.10;99.90;;;;;;5030670;28;20462;-70
2023/05/24 04:51:56;;;;;;;38.63;4.97;;;11.20;99.90;;;;;;5030347;28;20072;-70
2023/05/24 04:54:22;;;;;;;36.13;6.03;;;11.30;99.90;;;;;;5030324;28;20032;-70
2023/05/24 04:56:48;;;;;;;24.42;4.80;;;11.30;99.90;;;;;;5013786;28;20025;-70
2023/05/24 04:59:14;;;;;;;30.38;6.07;;;11.20;99.90;;;;;;5030227;28;20513;-70
2023/05/24 05:01:40;;;;;;;35.67;5.07;;;11.10;99.90;;;;;;5030206;28;20025;-71
2023/05/24 05:04:06;;;;;;;36.45;6.40;;;11.30;99.90;;;;;;5030240;28;20041;-70
2023/05/24 05:06:37;;;;;;;24.52;5.40;;;11.40;99.90;;;;;;5030439;28;20403;-70
2023/05/24 05:09:11;;;;;;;27.88;5.82;;;11.40;99.70;;;;;;5030754;28;20018;-70
2023/05/24 05:11:37;;;;;;;32.22;5.60;;;11.40;99.90;;;;;;5030504;28;20041;-71
2023/05/24 05:14:03;;;;;;;25.35;4.75;;;11.40;99.70;;;;;;5012486;28;20040;-73
2023/05/24 05:16:30;;;;;;;18.20;4.28;;;11.40;99.60;;;;;;5030119;28;20029;-72
2023/05/24 05:18:56;;;;;;;35.30;5.80;;;11.40;99.70;;;;;;5030386;28;20045;-72
2023/05/24 05:21:22;;;;;;;28.00;5.05;;;11.40;99.70;;;;;;5030305;28;20035;-71
2023/05/24 05:23:47;;;;;;;30.20;5.63;;;11.40;99.80;;;;;;5030707;28;20055;-72
2023/05/24 05:26:13;;;;;;;28.30;5.78;;;11.50;99.80;;;;;;5030182;28;20033;-72
2023/05/24 05:28:39;;;;;;;27.15;5.72;;;11.50;99.60;;;;;;5012778;28;20359;-71
2023/05/24 05:31:04;;;;;;;29.13;5.35;;;11.60;99.60;;;;;;5012474;28;20145;-72
2023/05/24 05:33:31;;;;;;;29.05;5.95;;;11.60;99.50;;;;;;5029921;28;20120;-70
2023/05/24 05:35:57;;;;;;;31.48;5.82;;;11.80;99.30;;;;;;5030767;28;20101;-70
2023/05/24 05:38:23;;;;;;;31.45;5.45;;;11.80;99.10;;;;;;5030133;28;20113;-69
2023/05/24 05:40:48;;;;;;;26.92;5.55;;;11.80;99.00;;;;;;5030122;28;20029;-70
2023/05/24 05:43:14;;;;;;;26.35;5.25;;;11.80;99.10;;;;;;5029277;28;20091;-70
2023/05/24 05:45:40;;;;;;;33.78;5.20;;;11.90;99.00;;;;;;5030306;28;20036;-71
2023/05/24 05:48:06;;;;;;;21.20;5.35;;;11.90;98.90;;;;;;5030524;28;20099;-70
2023/05/24 05:50:31;;;;;;;32.80;4.95;;;11.90;99.20;;;;;;5030488;28;20028;-70
2023/05/24 05:52:57;;;;;;;34.28;5.68;;;12.00;98.90;;;;;;5030151;28;20113;-70
2023/05/24 05:55:23;;;;;;;25.38;6.05;;;12.00;99.00;;;;;;5030299;28;20080;-70
2023/05/24 05:57:49;;;;;;;28.65;5.40;;;12.10;98.60;;;;;;5030058;28;20121;-70
2023/05/24 06:00:15;;;;;;;20.80;5.20;;;12.00;98.60;;;;;;5013238;28;20114;-71
2023/05/24 06:02:41;;;;;;;33.30;5.72;;;12.20;98.80;;;;;;5030060;28;20033;-70
2023/05/24 06:05:07;;;;;;;31.65;5.30;;;12.20;98.80;;;;;;5030099;28;20029;-69
2023/05/24 06:07:34;;;;;;;34.67;5.40;;;12.10;98.60;;;;;;5029338;28;20391;-69
2023/05/24 06:10:00;;;;;;;35.80;5.47;;;12.20;98.50;;;;;;5012673;28;20061;-71
2023/05/24 06:12:25;;;;;;;28.40;5.22;;;12.20;98.60;;;;;;5012406;28;20068;-70
2023/05/24 06:14:51;;;;;;;30.83;4.80;;;12.10;98.60;;;;;;5029387;28;20033;-71
2023/05/24 06:17:17;;;;;;;39.55;5.28;;;12.30;98.70;;;;;;5012336;28;20036;-72
2023/05/24 06:19:44;;;;;;;30.77;5.57;;;12.50;98.70;;;;;;5029923;28;20172;-72
2023/05/24 06:22:11;;;;;;;24.02;5.18;;;12.50;98.30;;;;;;5008042;28;20065;-74
2023/05/24 06:24:38;;;;;;;30.40;5.85;;;12.60;98.30;;;;;;5013009;28;20348;-74
2023/05/24 06:27:05;;;;;;;25.65;5.00;;;12.70;98.00;;;;;;5013538;28;20021;-72
2023/05/24 06:29:30;;;;;;;45.50;5.38;;;12.60;98.10;;;;;;5030463;28;20550;-73
2023/05/24 06:31:56;;;;;;;28.05;5.22;;;12.80;98.10;;;;;;5030419;28;20076;-73
2023/05/24 06:34:22;;;;;;;36.90;7.53;;;12.90;97.60;;;;;;5030453;28;20095;-71
2023/05/24 06:36:49;;;;;;;24.23;4.70;;;13.10;97.50;;;;;;5033515;28;20364;-71
2023/05/24 06:39:16;;;;;;;26.17;5.35;;;13.30;97.40;;;;;;5034401;28;20025;-71
2023/05/24 06:41:43;;;;;;;29.80;5.05;;;13.30;97.40;;;;;;5034128;28;20100;-73
2023/05/24 06:44:09;;;;;;;30.23;6.15;;;13.40;97.30;;;;;;5033984;28;20507;-72
2023/05/24 06:46:35;;;;;;;20.02;5.47;;;13.40;97.40;;;;;;5033957;28;20029;-71
2023/05/24 06:49:01;;;;;;;25.88;5.13;;;13.50;97.20;;;;;;5034007;28;20057;-72
2023/05/24 06:51:26;;;;;;;31.25;5.22;;;13.50;96.70;;;;;;5033641;28;20114;-72
2023/05/24 06:53:52;;;;;;;26.65;5.20;;;13.40;96.50;;;;;;5034224;28;20056;-71
2023/05/24 06:56:18;;;;;;;29.63;4.93;;;13.40;96.60;;;;;;5033862;28;20045;-69
2023/05/24 06:58:44;;;;;;;25.65;5.68;;;13.50;96.60;;;;;;5033916;28;20089;-71
2023/05/24 07:01:10;;;;;;;25.65;5.07;;;13.40;96.50;;;;;;5033807;28;20063;-72
2023/05/24 07:03:36;;;;;;;24.60;4.78;;;13.50;96.40;;;;;;5016814;28;20387;-71
2023/05/24 07:06:02;;;;;;;24.60;5.45;;;13.60;96.40;;;;;;5033843;28;20032;-71
2023/05/24 07:08:28;;;;;;;28.90;7.25;;;13.70;96.10;;;;;;5033552;28;20040;-72
2023/05/24 07:10:55;;;;;;;24.80;4.57;;;13.80;96.20;;;;;;5033339;28;20034;-73
2023/05/24 07:13:21;;;;;;;14.30;4.18;;;13.70;96.10;;;;;;5033618;28;20061;-71
2023/05/24 07:15:48;;;;;;;28.98;6.30;;;13.70;96.00;;;;;;5015901;28;20290;-73
2023/05/24 07:18:14;;;;;;;32.53;4.77;;;13.70;96.00;;;;;;5034043;28;20029;-72
2023/05/24 07:20:40;;;;;;;20.65;4.63;;;13.80;96.00;;;;;;5033587;28;20266;-73
2023/05/24 07:23:06;;;;;;;25.73;4.88;;;13.80;95.80;;;;;;5033168;28;20071;-71
2023/05/24 07:25:32;;;;;;;23.23;4.22;;;13.80;95.70;;;;;;5033407;28;20068;-73
2023/05/24 07:28:00;;;;;;;26.35;5.13;;;13.70;95.90;;;;;;5033286;28;20345;-73
2023/05/24 07:30:26;;;;;;;27.57;5.23;;;13.70;96.00;;;;;;5033264;28;20407;-71
2023/05/24 07:32:52;;;;;;;20.98;3.88;;;13.80;96.00;;;;;;5015804;28;20037;-73
2023/05/24 07:35:18;;;;;;;20.33;4.70;;;13.80;95.90;;;;;;5015419;28;20116;-73
2023/05/24 07:37:44;;;;;;;26.33;5.15;;;13.90;96.00;;;;;;5032924;28;20103;-72
2023/05/24 07:40:13;;;;;;;24.80;4.65;;;13.90;96.10;;;;;;5033255;28;20034;-73
2023/05/24 07:42:38;;;;;;;37.70;6.07;;;13.80;96.20;;;;;;5015507;28;20100;-72
2023/05/24 07:45:09;;;;;;;30.05;5.15;;;13.90;96.10;;;;;;5033348;28;20096;-72
2023/05/24 07:47:36;;;;;;;16.80;3.80;;;14.00;96.20;;;;;;5031603;28;20111;-73
2023/05/24 07:50:02;;;;;;;20.33;4.50;;;13.90;95.90;;;;;;5032762;28;20033;-71
2023/05/24 07:52:28;;;;;;;22.88;4.70;;;13.80;96.10;;;;;;5014834;28;20068;-72
2023/05/24 07:54:54;;;;;;;22.58;4.93;;;13.80;96.30;;;;;;5032596;28;20029;-73
2023/05/24 07:57:20;;;;;;;20.88;4.68;;;13.70;96.50;;;;;;5032677;28;20056;-73
2023/05/24 07:59:46;;;;;;;20.50;4.38;;;13.80;96.50;;;;;;5032837;28;20033;-70
2023/05/24 08:02:12;;;;;;;29.80;5.60;;;13.70;96.90;;;;;;5032187;28;20056;-73
2023/05/24 08:04:39;;;;;;;23.75;4.65;;;13.50;97.80;;;;;;5032250;28;20029;-71
2023/05/24 08:07:05;;;;;;;34.65;5.90;;;13.50;98.40;;;;;;5031977;28;20044;-73
2023/05/24 08:09:35;;;;;;;25.15;5.20;;;13.40;99.00;;;;;;5032326;28;20017;-74
2023/05/24 08:12:02;;;;;;;29.23;5.28;;;13.40;99.60;;;;;;5015288;28;20039;-73
2023/05/24 08:14:28;;;;;;;25.60;4.87;;;13.30;99.90;;;;;;5032328;28;20475;-72
2023/05/24 08:16:53;;;;;;;25.02;5.32;;;13.30;99.90;;;;;;5032033;28;20117;-73
2023/05/24 08:19:19;;;;;;;25.60;4.90;;;13.50;99.90;;;;;;5032162;28;20068;-72
2023/05/24 08:21:45;;;;;;;28.90;6.13;;;13.30;99.90;;;;;;5014513;28;20033;-73
2023/05/24 08:24:11;;;;;;;26.33;5.70;;;13.30;99.90;;;;;;5032852;28;20509;-74
2023/05/24 08:26:37;;;;;;;27.17;5.63;;;13.20;99.90;;;;;;5032169;28;20500;-73
2023/05/24 08:29:03;;;;;;;19.13;4.78;;;13.20;99.90;;;;;;5032490;28;20049;-73
2023/05/24 08:31:31;;;;;;;21.98;5.45;;;13.20;99.90;;;;;;5031989;28;20110;-73
2023/05/24 08:33:57;;;;;;;25.33;5.55;;;13.10;99.90;;;;;;5031995;28;20034;-72
2023/05/24 08:36:22;;;;;;;40.60;5.70;;;13.10;99.90;;;;;;5031807;28;20094;-74
2023/05/24 08:38:48;;;;;;;22.02;4.75;;;13.10;99.90;;;;;;5032405;28;20040;-74
2023/05/24 08:41:14;;;;;;;19.92;4.28;;;13.20;99.90;;;;;;5014412;28;20030;-77
2023/05/24 08:43:42;;;;;;;26.80;5.53;;;13.20;99.90;;;;;;5032068;28;20041;-71
2023/05/24 08:46:09;;;;;;;29.17;5.70;;;13.20;99.90;;;;;;5032088;28;20048;-74
2023/05/24 08:48:44;;;;;;;27.75;6.22;;;13.40;99.90;;;;;;5031990;28;20045;-73
2023/05/24 08:51:11;;;;;;;31.77;10.52;;;13.10;99.90;;;;;;5031912;28;20017;-73
2023/05/24 08:53:38;;;;;;;30.45;7.28;;;13.20;99.90;;;;;;5031703;28;20053;-74
2023/05/24 08:56:05;;;;;;;26.58;5.00;;;13.30;99.90;;;;;;5031665;28;20297;-73
2023/05/24 08:58:31;;;;;;;20.00;5.22;;;13.40;99.90;;;;;;5014108;28;20041;-73
2023/05/24 09:00:58;;;;;;;27.75;6.35;;;13.40;99.90;;;;;;5014245;28;20025;-74
2023/05/24 09:03:25;;;;;;;32.30;5.67;;;13.10;99.90;;;;;;5031607;28;20026;-75
2023/05/24 09:05:51;;;;;;;30.08;5.25;;;12.90;99.90;;;;;;5031869;28;20266;-73
2023/05/24 09:08:19;;;;;;;33.28;6.30;;;13.20;99.90;;;;;;5031527;28;20026;-74
2023/05/24 09:10:46;;;;;;;29.50;6.25;;;13.10;99.90;;;;;;5031589;28;20034;-70
2023/05/24 09:13:14;;;;;;;25.45;6.43;;;13.00;99.90;;;;;;5013726;28;20042;-70
2023/05/24 09:15:40;;;;;;;;;;;13.10;99.90;;;;;;5031667;28;20057;-71
2023/05/24 09:18:05;;;;;;;34.13;6.70;;;13.20;99.90;;;;;;5032033;28;19952;-71
2023/05/24 09:20:31;;;;;;;24.80;5.32;;;13.30;99.90;;;;;;5031269;28;20355;-74
2023/05/24 09:22:57;;;;;;;40.05;6.20;;;13.40;99.90;;;;;;5031240;28;20088;-73
2023/05/24 09:25:28;;;;;;;28.30;5.72;;;13.40;99.90;;;;;;5031361;28;20036;-73
2023/05/24 09:27:55;;;;;;;19.60;4.70;;;13.50;99.90;;;;;;5013588;28;20057;-74
2023/05/24 09:30:21;;;;;;;29.85;6.65;;;13.20;99.90;;;;;;5030954;28;20053;-72
2023/05/24 09:33:07;;;;;;;23.83;5.30;;;13.20;99.90;;;;;;5031351;28;20643;-71
2023/05/24 09:35:33;;;;;;;22.73;5.45;;;13.40;99.90;;;;;;5030229;28;20048;-74
2023/05/24 09:37:59;;;;;;;24.77;4.80;;;13.20;99.90;;;;;;5013339;28;20026;-71
2023/05/24 09:40:26;;;;;;;29.55;6.43;;;13.20;99.90;;;;;;5031149;28;20113;-71
2023/05/24 09:43:07;;;;;;;35.47;5.90;;;13.40;99.90;;;;;;5013325;28;20034;-72
2023/05/24 09:45:46;;;;;;;31.98;6.45;;;13.40;99.90;;;;;;5030975;28;20397;-73
2023/05/24 09:48:19;;;;;;;24.52;5.78;;;13.40;99.90;;;;;;5031608;28;20025;-71
2023/05/24 09:51:08;;;;;;;25.40;6.40;;;13.30;99.90;;;;;;5031532;28;20118;-72
2023/05/24 09:53:35;;;;;;;29.90;6.10;;;13.50;99.90;;;;;;5013413;28;20030;-73
2023/05/24 09:56:07;;;;;;;37.17;6.37;;;13.60;99.90;;;;;;5030928;28;20431;-72
2023/05/24 09:58:33;;;;;;;26.42;6.57;;;13.70;99.90;;;;;;5030613;28;20030;-73
2023/05/24 10:01:13;;;;;;;33.78;6.75;;;13.80;99.90;;;;;;5031136;28;20121;-72
2023/05/24 10:03:51;;;;;;;21.42;5.53;;;13.60;99.90;;;;;;5030757;28;20334;-73
2023/05/24 10:06:18;;;;;;;31.40;6.43;;;13.70;99.90;;;;;;5030261;28;20037;-71
2023/05/24 10:08:47;;;;;;;22.45;6.13;;;13.70;99.90;;;;;;5013681;28;20447;-71
2023/05/24 10:11:12;;;;;;;18.80;5.28;;;14.00;99.90;;;;;;5033596;28;20087;-72
2023/05/24 10:13:38;;;;;;;17.23;5.43;;;14.00;99.90;;;;;;5016672;28;20042;-71
2023/05/24 10:16:04;;;;;;;34.20;7.00;;;13.90;99.90;;;;;;5016840;28;20037;-71
2023/05/24 10:18:30;;;;;;;22.80;6.18;;;14.00;99.90;;;;;;5034658;28;20392;-70
2023/05/24 10:20:57;;;;;;;24.83;6.50;;;14.10;99.90;;;;;;5034824;28;20034;-70
2023/05/24 10:23:25;;;;;;;24.55;7.40;;;14.10;99.90;;;;;;5034267;28;20467;-69
2023/05/24 10:25:57;;;;;;;29.92;6.95;;;14.20;99.90;;;;;;5016754;28;20128;-70
2023/05/24 10:28:23;;;;;;;30.42;6.40;;;14.20;99.90;;;;;;5034326;28;20033;-70
2023/05/24 10:30:52;;;;;;;26.17;6.45;;;14.20;99.90;;;;;;5033621;28;20033;-71
2023/05/24 10:33:20;;;;;;;26.70;6.22;;;14.10;99.90;;;;;;5029165;28;20831;-71
2023/05/24 10:35:46;;;;;;;;;;;14.20;99.90;;;;;;5034320;28;20034;-71
2023/05/24 10:38:12;;;;;;;23.85;6.28;;;14.20;99.90;;;;;;5034169;28;19909;-71
2023/05/24 10:40:41;;;;;;;33.60;7.28;;;14.30;99.90;;;;;;5033992;28;20055;-70
2023/05/24 10:43:08;;;;;;;23.35;5.85;;;14.20;99.90;;;;;;5033968;28;20025;-71
2023/05/24 10:45:38;;;;;;;28.83;6.50;;;14.10;99.90;;;;;;5016406;28;20034;-70
2023/05/24 10:48:08;;;;;;;33.58;7.10;;;14.10;99.90;;;;;;5016496;28;20018;-70
2023/05/24 10:50:35;;;;;;;18.10;5.93;;;14.10;99.90;;;;;;5033678;28;20418;-71
2023/05/24 10:53:17;;;;;;;29.33;6.53;;;14.00;99.90;;;;;;5033812;28;20076;-70
2023/05/24 10:56:00;;;;;;;25.35;5.75;;;14.10;99.90;;;;;;5033686;28;20483;-68
2023/05/24 10:58:50;;;;;;;25.92;7.07;;;14.10;99.90;;;;;;5033833;28;20044;-71
2023/05/24 11:01:30;;;;;;;21.98;6.95;;;14.20;99.90;;;;;;5033740;28;20033;-70
2023/05/24 11:04:09;;;;;;;29.35;6.82;;;13.90;99.90;;;;;;5033300;28;20056;-72
2023/05/24 11:07:08;;;;;;;23.35;6.10;;;13.60;99.90;;;;;;5033451;28;20432;-71
2023/05/24 11:09:34;;;;;;;24.55;6.20;;;13.60;99.90;;;;;;5018775;28;20044;-72
2023/05/24 11:12:07;;;;;;;23.33;6.60;;;13.70;99.90;;;;;;5033957;28;20029;-72
2023/05/24 11:14:41;;;;;;;23.33;5.45;;;13.80;99.90;;;;;;5028245;28;20037;-70
2023/05/24 11:17:07;;;;;;;24.83;6.13;;;13.90;99.90;;;;;;5016417;28;20032;-73
2023/05/24 11:19:44;;;;;;;27.02;6.15;;;14.00;99.90;;;;;;5034112;28;20151;-74
2023/05/24 11:22:12;;;;;;;22.42;6.43;;;13.80;99.90;;;;;;5033605;28;20037;-73
2023/05/24 11:24:40;;;;;;;25.30;6.38;;;13.80;99.90;;;;;;5015546;28;20040;-73
2023/05/24 11:27:06;;;;;;;24.33;6.82;;;13.90;99.90;;;;;;5016355;28;20128;-72
2023/05/24 11:29:38;;;;;;;35.05;7.10;;;13.90;99.90;;;;;;5032330;28;20053;-73
2023/05/24 11:32:04;;;;;;;22.27;5.90;;;14.00;99.90;;;;;;5033140;28;20077;-71
2023/05/24 11:34:31;;;;;;;21.67;5.85;;;13.80;99.90;;;;;;5015407;28;20455;-73
2023/05/24 11:37:00;;;;;;;28.05;7.85;;;13.90;99.90;;;;;;5032963;28;20119;-71
2023/05/24 11:39:36;;;;;;;27.90;5.45;;;13.90;99.90;;;;;;5032811;28;20053;-73
2023/05/24 11:42:08;;;;;;;22.45;5.97;;;13.80;99.90;;;;;;5033179;28;20032;-71
2023/05/24 11:44:36;;;;;;;24.10;6.40;;;13.70;99.90;;;;;;5032520;28;20467;-72
2023/05/24 11:47:05;;;;;;;33.03;7.00;;;13.90;99.90;;;;;;5015066;28;20120;-72
2023/05/24 11:49:31;;;;;;;22.77;6.47;;;14.10;99.90;;;;;;5032743;28;20104;-72
2023/05/24 11:51:58;;;;;;;25.30;6.82;;;13.90;99.90;;;;;;5032545;28;20448;-73
2023/05/24 11:54:25;;;;;;;23.73;6.03;;;14.10;99.90;;;;;;5032496;28;20036;-70
2023/05/24 11:56:52;;;;;;;28.60;6.60;;;14.10;99.90;;;;;;5033074;28;20031;-69
2023/05/24 11:59:26;;;;;;;25.73;5.90;;;13.90;99.90;;;;;;5032342;28;20030;-72
2023/05/24 12:02:06;;;;;;;28.80;7.05;;;14.00;99.90;;;;;;5032349;28;20284;-71
2023/05/24 12:04:33;;;;;;;39.78;8.32;;;14.00;99.90;;;;;;5032341;28;20063;-71
2023/05/24 12:06:59;;;;;;;19.63;6.47;;;14.20;99.90;;;;;;5032377;28;20057;-70
2023/05/24 12:09:25;;;;;;;29.67;6.75;;;14.20;99.90;;;;;;5032460;28;20086;-70
2023/05/24 12:11:52;;;;;;;26.88;7.03;;;14.30;99.90;;;;;;5032658;28;20215;-70
2023/05/24 12:14:27;;;;;;;27.30;6.75;;;14.40;99.90;;;;;;5032074;28;20045;-70
2023/05/24 12:16:57;;;;;;;22.13;6.18;;;14.60;99.90;;;;;;5032043;28;20025;-72
2023/05/24 12:19:25;;;;;;;18.95;6.05;;;14.60;99.90;;;;;;5032178;28;20087;-73
2023/05/24 12:21:57;;;;;;;31.33;8.65;;;14.60;99.90;;;;;;5014441;28;20188;-72
2023/05/24 12:24:24;;;;;;;19.92;5.88;;;14.50;99.90;;;;;;5032022;28;20029;-72
2023/05/24 12:26:50;;;;;;;23.20;7.07;;;14.60;99.90;;;;;;5015022;28;20029;-70
2023/05/24 12:29:18;;;;;;;33.22;5.78;;;14.60;99.90;;;;;;5031620;28;20164;-71
2023/05/24 12:31:47;;;;;;;21.52;5.93;;;14.70;99.90;;;;;;5032064;28;20306;-71
2023/05/24 12:34:17;;;;;;;20.60;5.50;;;14.80;99.90;;;;;;5031114;28;20045;-72
2023/05/24 12:36:43;;;;;;;23.95;6.57;;;14.80;99.90;;;;;;5031908;28;20440;-71
2023/05/24 12:39:20;;;;;;;27.65;6.90;;;14.80;99.90;;;;;;5032358;28;20044;-72
2023/05/24 12:41:55;;;;;;;19.40;6.07;;;14.90;99.90;;;;;;5031907;28;20034;-72